sensor_id;sensor_type;location;lat;lon;timestamp;P1;durP1;ratioP1;P2;durP2;ratioP2
71148;SDS011;59072;42.144;25.200;2022-12-29T00:02:01;18.30;;;8.40;;
71148;SDS011;59072;42.144;25.200;2022-12-29T00:04:27;17.48;;;8.20;;
71148;SDS011;59072;42.144;25.200;2022-12-29T00:06:52;15.27;;;8.93;;
71148;SDS011;59072;42.144;25.200;2022-12-29T00:09:18;17.25;;;8.20;;
71148;SDS011;59072;42.144;25.200;2022-12-29T00:11:44;18.70;;;9.02;;
71148;SDS011;59072;42.144;25.200;2022-12-29T00:14:10;15.68;;;8.55;;
71148;SDS011;59072;42.144;25.200;2022-12-29T00:16:54;16.85;;;8.77;;
71148;SDS011;59072;42.144;25.200;2022-12-29T00:19:20;17.88;;;10.20;;
71148;SDS011;59072;42.144;25.200;2022-12-29T00:22:05;18.02;;;9.77;;
71148;SDS011;59072;42.144;25.200;2022-12-29T00:24:49;16.48;;;9.10;;
71148;SDS011;59072;42.144;25.200;2022-12-29T00:27:28;18.43;;;10.33;;
71148;SDS011;59072;42.144;25.200;2022-12-29T00:30:13;17.70;;;10.00;;
71148;SDS011;59072;42.144;25.200;2022-12-29T00:32:59;24.70;;;11.25;;
71148;SDS011;59072;42.144;25.200;2022-12-29T00:35:53;18.45;;;9.63;;
71148;SDS011;59072;42.144;25.200;2022-12-29T00:38:23;20.58;;;10.57;;
71148;SDS011;59072;42.144;25.200;2022-12-29T00:41:07;24.65;;;12.23;;
71148;SDS011;59072;42.144;25.200;2022-12-29T00:43:51;32.55;;;14.15;;
71148;SDS011;59072;42.144;25.200;2022-12-29T00:46:32;58.30;;;23.30;;
71148;SDS011;59072;42.144;25.200;2022-12-29T00:48:57;35.70;;;15.35;;
71148;SDS011;59072;42.144;25.200;2022-12-29T00:51:42;26.90;;;12.93;;
71148;SDS011;59072;42.144;25.200;2022-12-29T00:54:07;26.13;;;11.10;;
71148;SDS011;59072;42.144;25.200;2022-12-29T00:56:33;21.35;;;11.63;;
71148;SDS011;59072;42.144;25.200;2022-12-29T00:59:02;22.45;;;10.55;;
71148;SDS011;59072;42.144;25.200;2022-12-29T01:01:34;17.15;;;8.77;;
71148;SDS011;59072;42.144;25.200;2022-12-29T01:04:01;18.90;;;8.90;;
71148;SDS011;59072;42.144;25.200;2022-12-29T01:06:26;17.83;;;8.63;;
71148;SDS011;59072;42.144;25.200;2022-12-29T01:08:52;21.52;;;9.65;;
71148;SDS011;59072;42.144;25.200;2022-12-29T01:11:36;16.38;;;7.93;;
71148;SDS011;59072;42.144;25.200;2022-12-29T01:14:02;18.20;;;8.70;;
71148;SDS011;59072;42.144;25.200;2022-12-29T01:16:28;15.18;;;8.38;;
71148;SDS011;59072;42.144;25.200;2022-12-29T01:18:54;14.98;;;8.63;;
71148;SDS011;59072;42.144;25.200;2022-12-29T01:21:19;19.92;;;10.20;;
71148;SDS011;59072;42.144;25.200;2022-12-29T01:23:45;20.23;;;11.38;;
71148;SDS011;59072;42.144;25.200;2022-12-29T01:26:15;25.63;;;13.10;;
71148;SDS011;59072;42.144;25.200;2022-12-29T01:28:42;20.20;;;11.63;;
71148;SDS011;59072;42.144;25.200;2022-12-29T01:31:08;21.95;;;12.15;;
71148;SDS011;59072;42.144;25.200;2022-12-29T01:33:38;23.90;;;12.73;;
71148;SDS011;59072;42.144;25.200;2022-12-29T01:36:04;22.58;;;12.55;;
71148;SDS011;59072;42.144;25.200;2022-12-29T01:38:31;24.20;;;12.45;;
71148;SDS011;59072;42.144;25.200;2022-12-29T01:40:57;20.20;;;11.57;;
71148;SDS011;59072;42.144;25.200;2022-12-29T01:46:17;20.75;;;12.75;;
71148;SDS011;59072;42.144;25.200;2022-12-29T01:51:32;21.42;;;11.75;;
71148;SDS011;59072;42.144;25.200;2022-12-29T01:54:02;22.42;;;11.38;;
71148;SDS011;59072;42.144;25.200;2022-12-29T01:56:33;18.90;;;11.65;;
71148;SDS011;59072;42.144;25.200;2022-12-29T01:59:01;19.25;;;11.40;;
71148;SDS011;59072;42.144;25.200;2022-12-29T02:01:30;21.05;;;12.00;;
71148;SDS011;59072;42.144;25.200;2022-12-29T02:03:55;21.08;;;12.85;;
71148;SDS011;59072;42.144;25.200;2022-12-29T02:06:22;23.67;;;14.73;;
71148;SDS011;59072;42.144;25.200;2022-12-29T02:08:52;23.27;;;14.10;;
71148;SDS011;59072;42.144;25.200;2022-12-29T02:11:20;19.90;;;11.50;;
71148;SDS011;59072;42.144;25.200;2022-12-29T02:13:48;22.17;;;12.52;;
71148;SDS011;59072;42.144;25.200;2022-12-29T02:36:15;20.67;;;11.73;;
71148;SDS011;59072;42.144;25.200;2022-12-29T02:38:58;19.77;;;11.32;;
71148;SDS011;59072;42.144;25.200;2022-12-29T02:41:34;23.10;;;11.85;;
71148;SDS011;59072;42.144;25.200;2022-12-29T02:44:12;30.20;;;12.65;;
71148;SDS011;59072;42.144;25.200;2022-12-29T02:51:50;20.88;;;11.13;;
71148;SDS011;59072;42.144;25.200;2022-12-29T02:54:19;20.98;;;12.35;;
71148;SDS011;59072;42.144;25.200;2022-12-29T02:59:52;21.45;;;11.25;;
71148;SDS011;59072;42.144;25.200;2022-12-29T03:14:02;24.38;;;12.35;;
71148;SDS011;59072;42.144;25.200;2022-12-29T03:16:44;19.95;;;12.05;;
71148;SDS011;59072;42.144;25.200;2022-12-29T03:21:39;20.00;;;11.70;;
71148;SDS011;59072;42.144;25.200;2022-12-29T03:24:28;21.10;;;11.93;;
71148;SDS011;59072;42.144;25.200;2022-12-29T03:26:58;20.55;;;11.32;;
71148;SDS011;59072;42.144;25.200;2022-12-29T03:29:26;20.08;;;11.55;;
71148;SDS011;59072;42.144;25.200;2022-12-29T03:31:55;23.15;;;12.30;;
71148;SDS011;59072;42.144;25.200;2022-12-29T03:34:22;20.00;;;11.00;;
71148;SDS011;59072;42.144;25.200;2022-12-29T03:36:50;20.13;;;11.48;;
71148;SDS011;59072;42.144;25.200;2022-12-29T03:39:21;22.27;;;11.75;;
71148;SDS011;59072;42.144;25.200;2022-12-29T03:41:48;18.98;;;11.50;;
71148;SDS011;59072;42.144;25.200;2022-12-29T03:44:21;21.20;;;11.68;;
71148;SDS011;59072;42.144;25.200;2022-12-29T03:46:46;18.83;;;11.88;;
71148;SDS011;59072;42.144;25.200;2022-12-29T03:49:12;21.83;;;11.32;;
71148;SDS011;59072;42.144;25.200;2022-12-29T03:51:37;23.55;;;13.40;;
71148;SDS011;59072;42.144;25.200;2022-12-29T03:54:03;19.00;;;11.25;;
71148;SDS011;59072;42.144;25.200;2022-12-29T03:56:28;23.00;;;11.43;;
71148;SDS011;59072;42.144;25.200;2022-12-29T03:58:53;20.30;;;11.13;;
71148;SDS011;59072;42.144;25.200;2022-12-29T04:01:19;21.27;;;10.57;;
71148;SDS011;59072;42.144;25.200;2022-12-29T04:03:44;16.50;;;10.13;;
71148;SDS011;59072;42.144;25.200;2022-12-29T04:06:10;23.15;;;10.23;;
71148;SDS011;59072;42.144;25.200;2022-12-29T04:08:35;17.55;;;10.50;;
71148;SDS011;59072;42.144;25.200;2022-12-29T04:11:01;19.73;;;11.20;;
71148;SDS011;59072;42.144;25.200;2022-12-29T04:13:26;19.17;;;10.45;;
71148;SDS011;59072;42.144;25.200;2022-12-29T04:15:51;22.63;;;10.57;;
71148;SDS011;59072;42.144;25.200;2022-12-29T04:18:17;21.27;;;11.27;;
71148;SDS011;59072;42.144;25.200;2022-12-29T04:20:43;21.90;;;12.93;;
71148;SDS011;59072;42.144;25.200;2022-12-29T04:23:24;27.33;;;14.82;;
71148;SDS011;59072;42.144;25.200;2022-12-29T04:25:50;201.32;;;75.28;;
71148;SDS011;59072;42.144;25.200;2022-12-29T04:28:16;53.55;;;25.23;;
71148;SDS011;59072;42.144;25.200;2022-12-29T04:30:42;32.08;;;15.98;;
71148;SDS011;59072;42.144;25.200;2022-12-29T04:33:08;23.05;;;13.55;;
71148;SDS011;59072;42.144;25.200;2022-12-29T04:35:34;29.08;;;15.25;;
71148;SDS011;59072;42.144;25.200;2022-12-29T04:37:59;27.60;;;13.68;;
71148;SDS011;59072;42.144;25.200;2022-12-29T04:40:25;21.60;;;13.52;;
71148;SDS011;59072;42.144;25.200;2022-12-29T04:42:50;25.80;;;16.83;;
71148;SDS011;59072;42.144;25.200;2022-12-29T04:45:16;25.88;;;14.20;;
71148;SDS011;59072;42.144;25.200;2022-12-29T04:47:42;35.78;;;16.77;;
71148;SDS011;59072;42.144;25.200;2022-12-29T04:50:07;27.65;;;14.52;;
71148;SDS011;59072;42.144;25.200;2022-12-29T04:52:34;50.10;;;21.23;;
71148;SDS011;59072;42.144;25.200;2022-12-29T04:54:59;53.58;;;24.10;;
71148;SDS011;59072;42.144;25.200;2022-12-29T04:57:25;42.45;;;20.27;;
71148;SDS011;59072;42.144;25.200;2022-12-29T04:59:51;42.75;;;20.73;;
71148;SDS011;59072;42.144;25.200;2022-12-29T05:02:16;33.08;;;17.65;;
71148;SDS011;59072;42.144;25.200;2022-12-29T05:04:42;34.90;;;16.25;;
71148;SDS011;59072;42.144;25.200;2022-12-29T05:07:08;25.45;;;13.73;;
71148;SDS011;59072;42.144;25.200;2022-12-29T05:09:33;31.92;;;17.42;;
71148;SDS011;59072;42.144;25.200;2022-12-29T05:11:59;29.20;;;16.08;;
71148;SDS011;59072;42.144;25.200;2022-12-29T05:14:24;26.05;;;12.82;;
71148;SDS011;59072;42.144;25.200;2022-12-29T05:16:50;22.85;;;12.70;;
71148;SDS011;59072;42.144;25.200;2022-12-29T05:19:16;21.50;;;12.50;;
71148;SDS011;59072;42.144;25.200;2022-12-29T05:21:42;24.10;;;12.98;;
71148;SDS011;59072;42.144;25.200;2022-12-29T05:24:08;24.27;;;14.43;;
71148;SDS011;59072;42.144;25.200;2022-12-29T05:26:33;24.42;;;15.18;;
71148;SDS011;59072;42.144;25.200;2022-12-29T05:28:59;24.27;;;14.50;;
71148;SDS011;59072;42.144;25.200;2022-12-29T05:31:25;21.83;;;12.40;;
71148;SDS011;59072;42.144;25.200;2022-12-29T05:33:50;22.00;;;13.13;;
71148;SDS011;59072;42.144;25.200;2022-12-29T05:36:16;24.13;;;13.77;;
71148;SDS011;59072;42.144;25.200;2022-12-29T05:38:41;21.80;;;12.85;;
71148;SDS011;59072;42.144;25.200;2022-12-29T05:41:06;28.02;;;15.80;;
71148;SDS011;59072;42.144;25.200;2022-12-29T05:43:32;29.95;;;14.85;;
71148;SDS011;59072;42.144;25.200;2022-12-29T05:45:57;29.73;;;14.52;;
71148;SDS011;59072;42.144;25.200;2022-12-29T05:48:23;23.67;;;13.63;;
71148;SDS011;59072;42.144;25.200;2022-12-29T05:50:49;25.92;;;14.40;;
71148;SDS011;59072;42.144;25.200;2022-12-29T05:53:15;24.30;;;13.57;;
71148;SDS011;59072;42.144;25.200;2022-12-29T05:55:40;23.25;;;11.63;;
71148;SDS011;59072;42.144;25.200;2022-12-29T05:58:06;32.55;;;20.15;;
71148;SDS011;59072;42.144;25.200;2022-12-29T06:00:31;40.78;;;24.17;;
71148;SDS011;59072;42.144;25.200;2022-12-29T06:02:57;36.05;;;21.60;;
71148;SDS011;59072;42.144;25.200;2022-12-29T06:05:22;32.90;;;21.33;;
71148;SDS011;59072;42.144;25.200;2022-12-29T06:07:48;38.72;;;21.02;;
71148;SDS011;59072;42.144;25.200;2022-12-29T06:10:13;28.30;;;17.42;;
71148;SDS011;59072;42.144;25.200;2022-12-29T06:12:39;39.28;;;22.77;;
71148;SDS011;59072;42.144;25.200;2022-12-29T06:15:04;58.72;;;30.33;;
71148;SDS011;59072;42.144;25.200;2022-12-29T06:17:30;52.35;;;28.60;;
71148;SDS011;59072;42.144;25.200;2022-12-29T06:19:56;44.88;;;23.30;;
71148;SDS011;59072;42.144;25.200;2022-12-29T06:22:21;36.30;;;21.48;;
71148;SDS011;59072;42.144;25.200;2022-12-29T06:24:47;44.25;;;23.67;;
71148;SDS011;59072;42.144;25.200;2022-12-29T06:27:12;44.78;;;23.17;;
71148;SDS011;59072;42.144;25.200;2022-12-29T06:29:38;46.47;;;23.98;;
71148;SDS011;59072;42.144;25.200;2022-12-29T06:32:05;53.22;;;28.58;;
71148;SDS011;59072;42.144;25.200;2022-12-29T06:34:31;53.88;;;29.08;;
71148;SDS011;59072;42.144;25.200;2022-12-29T06:36:56;45.95;;;24.15;;
71148;SDS011;59072;42.144;25.200;2022-12-29T06:39:22;37.00;;;18.65;;
71148;SDS011;59072;42.144;25.200;2022-12-29T06:41:47;32.53;;;16.38;;
71148;SDS011;59072;42.144;25.200;2022-12-29T06:44:13;30.73;;;18.52;;
71148;SDS011;59072;42.144;25.200;2022-12-29T06:46:38;33.30;;;17.30;;
71148;SDS011;59072;42.144;25.200;2022-12-29T06:49:04;27.33;;;13.45;;
71148;SDS011;59072;42.144;25.200;2022-12-29T06:51:29;29.95;;;15.63;;
71148;SDS011;59072;42.144;25.200;2022-12-29T06:53:54;40.92;;;18.75;;
71148;SDS011;59072;42.144;25.200;2022-12-29T06:56:20;34.47;;;17.27;;
71148;SDS011;59072;42.144;25.200;2022-12-29T06:58:45;34.53;;;15.68;;
71148;SDS011;59072;42.144;25.200;2022-12-29T07:01:11;58.10;;;41.97;;
71148;SDS011;59072;42.144;25.200;2022-12-29T07:03:36;24.75;;;15.30;;
71148;SDS011;59072;42.144;25.200;2022-12-29T07:06:01;26.35;;;17.23;;
71148;SDS011;59072;42.144;25.200;2022-12-29T07:08:27;23.52;;;15.00;;
71148;SDS011;59072;42.144;25.200;2022-12-29T07:10:52;24.98;;;13.15;;
71148;SDS011;59072;42.144;25.200;2022-12-29T07:13:18;24.58;;;13.55;;
71148;SDS011;59072;42.144;25.200;2022-12-29T07:15:43;25.33;;;12.82;;
71148;SDS011;59072;42.144;25.200;2022-12-29T07:18:09;21.35;;;12.63;;
71148;SDS011;59072;42.144;25.200;2022-12-29T07:20:40;21.50;;;12.43;;
71148;SDS011;59072;42.144;25.200;2022-12-29T07:23:06;26.27;;;13.77;;
71148;SDS011;59072;42.144;25.200;2022-12-29T07:25:32;24.38;;;12.32;;
71148;SDS011;59072;42.144;25.200;2022-12-29T07:28:00;18.07;;;10.63;;
71148;SDS011;59072;42.144;25.200;2022-12-29T07:30:25;18.70;;;10.45;;
71148;SDS011;59072;42.144;25.200;2022-12-29T07:32:52;19.67;;;10.23;;
71148;SDS011;59072;42.144;25.200;2022-12-29T07:35:18;20.02;;;10.85;;
71148;SDS011;59072;42.144;25.200;2022-12-29T07:37:43;17.58;;;11.60;;
71148;SDS011;59072;42.144;25.200;2022-12-29T07:40:09;19.42;;;11.25;;
71148;SDS011;59072;42.144;25.200;2022-12-29T07:42:34;17.15;;;11.75;;
71148;SDS011;59072;42.144;25.200;2022-12-29T07:45:00;104.63;;;58.67;;
71148;SDS011;59072;42.144;25.200;2022-12-29T07:47:26;22.65;;;13.40;;
71148;SDS011;59072;42.144;25.200;2022-12-29T07:49:51;18.20;;;11.35;;
71148;SDS011;59072;42.144;25.200;2022-12-29T07:52:17;17.40;;;11.60;;
71148;SDS011;59072;42.144;25.200;2022-12-29T07:54:42;25.00;;;13.23;;
71148;SDS011;59072;42.144;25.200;2022-12-29T07:57:08;20.60;;;12.18;;
71148;SDS011;59072;42.144;25.200;2022-12-29T07:59:33;67.90;;;30.42;;
71148;SDS011;59072;42.144;25.200;2022-12-29T08:01:59;21.20;;;12.15;;
71148;SDS011;59072;42.144;25.200;2022-12-29T08:04:24;19.73;;;11.70;;
71148;SDS011;59072;42.144;25.200;2022-12-29T08:06:50;18.30;;;11.05;;
71148;SDS011;59072;42.144;25.200;2022-12-29T08:09:15;19.75;;;11.48;;
71148;SDS011;59072;42.144;25.200;2022-12-29T08:11:41;20.88;;;11.95;;
71148;SDS011;59072;42.144;25.200;2022-12-29T08:14:07;24.65;;;11.45;;
71148;SDS011;59072;42.144;25.200;2022-12-29T08:16:33;19.95;;;11.98;;
71148;SDS011;59072;42.144;25.200;2022-12-29T08:18:59;22.30;;;12.93;;
71148;SDS011;59072;42.144;25.200;2022-12-29T08:21:26;30.45;;;13.38;;
71148;SDS011;59072;42.144;25.200;2022-12-29T08:23:53;23.17;;;12.90;;
71148;SDS011;59072;42.144;25.200;2022-12-29T08:26:18;22.58;;;12.88;;
71148;SDS011;59072;42.144;25.200;2022-12-29T08:28:44;22.35;;;13.90;;
71148;SDS011;59072;42.144;25.200;2022-12-29T08:31:09;26.55;;;14.98;;
71148;SDS011;59072;42.144;25.200;2022-12-29T08:33:35;21.52;;;13.07;;
71148;SDS011;59072;42.144;25.200;2022-12-29T08:36:01;20.23;;;12.38;;
71148;SDS011;59072;42.144;25.200;2022-12-29T08:38:28;22.67;;;11.98;;
71148;SDS011;59072;42.144;25.200;2022-12-29T08:40:54;21.27;;;11.98;;
71148;SDS011;59072;42.144;25.200;2022-12-29T08:43:20;21.40;;;12.13;;
71148;SDS011;59072;42.144;25.200;2022-12-29T08:45:45;22.98;;;12.40;;
71148;SDS011;59072;42.144;25.200;2022-12-29T08:48:11;20.40;;;12.00;;
71148;SDS011;59072;42.144;25.200;2022-12-29T08:50:36;21.33;;;11.45;;
71148;SDS011;59072;42.144;25.200;2022-12-29T08:53:02;21.50;;;12.23;;
71148;SDS011;59072;42.144;25.200;2022-12-29T08:55:27;23.30;;;13.27;;
71148;SDS011;59072;42.144;25.200;2022-12-29T08:57:53;23.23;;;13.05;;
71148;SDS011;59072;42.144;25.200;2022-12-29T09:00:18;21.98;;;13.20;;
71148;SDS011;59072;42.144;25.200;2022-12-29T09:02:45;22.30;;;13.40;;
71148;SDS011;59072;42.144;25.200;2022-12-29T09:05:10;21.00;;;13.68;;
71148;SDS011;59072;42.144;25.200;2022-12-29T09:07:36;21.88;;;13.32;;
71148;SDS011;59072;42.144;25.200;2022-12-29T09:10:01;22.88;;;14.75;;
71148;SDS011;59072;42.144;25.200;2022-12-29T09:12:28;34.08;;;18.83;;
71148;SDS011;59072;42.144;25.200;2022-12-29T09:14:53;21.08;;;12.82;;
71148;SDS011;59072;42.144;25.200;2022-12-29T09:17:19;24.65;;;14.25;;
71148;SDS011;59072;42.144;25.200;2022-12-29T09:20:03;23.27;;;13.73;;
71148;SDS011;59072;42.144;25.200;2022-12-29T09:22:28;20.58;;;13.65;;
71148;SDS011;59072;42.144;25.200;2022-12-29T09:24:54;18.75;;;11.77;;
71148;SDS011;59072;42.144;25.200;2022-12-29T09:27:19;22.38;;;12.70;;
71148;SDS011;59072;42.144;25.200;2022-12-29T09:29:45;23.77;;;14.18;;
71148;SDS011;59072;42.144;25.200;2022-12-29T09:32:10;20.52;;;11.98;;
71148;SDS011;59072;42.144;25.200;2022-12-29T09:34:36;25.33;;;12.65;;
71148;SDS011;59072;42.144;25.200;2022-12-29T09:37:01;21.30;;;12.52;;
71148;SDS011;59072;42.144;25.200;2022-12-29T09:39:26;21.60;;;13.00;;
71148;SDS011;59072;42.144;25.200;2022-12-29T09:41:55;21.15;;;13.07;;
71148;SDS011;59072;42.144;25.200;2022-12-29T09:44:48;19.80;;;12.75;;
71148;SDS011;59072;42.144;25.200;2022-12-29T09:47:33;22.00;;;11.25;;
71148;SDS011;59072;42.144;25.200;2022-12-29T09:50:09;19.13;;;12.88;;
71148;SDS011;59072;42.144;25.200;2022-12-29T09:52:53;21.92;;;12.02;;
71148;SDS011;59072;42.144;25.200;2022-12-29T09:55:30;21.02;;;11.25;;
71148;SDS011;59072;42.144;25.200;2022-12-29T09:58:04;20.05;;;11.10;;
71148;SDS011;59072;42.144;25.200;2022-12-29T10:00:37;21.40;;;12.70;;
71148;SDS011;59072;42.144;25.200;2022-12-29T10:03:24;21.02;;;12.02;;
71148;SDS011;59072;42.144;25.200;2022-12-29T10:06:03;20.08;;;12.05;;
71148;SDS011;59072;42.144;25.200;2022-12-29T10:11:41;21.58;;;12.10;;
71148;SDS011;59072;42.144;25.200;2022-12-29T10:25:01;23.92;;;13.93;;
71148;SDS011;59072;42.144;25.200;2022-12-29T10:27:36;22.77;;;14.52;;
71148;SDS011;59072;42.144;25.200;2022-12-29T10:30:02;22.80;;;14.52;;
71148;SDS011;59072;42.144;25.200;2022-12-29T10:34:58;23.50;;;14.27;;
71148;SDS011;59072;42.144;25.200;2022-12-29T10:45:58;24.83;;;14.18;;
71148;SDS011;59072;42.144;25.200;2022-12-29T10:48:31;23.45;;;13.93;;
71148;SDS011;59072;42.144;25.200;2022-12-29T10:50:59;20.27;;;12.80;;
71148;SDS011;59072;42.144;25.200;2022-12-29T10:53:44;23.80;;;14.15;;
71148;SDS011;59072;42.144;25.200;2022-12-29T10:58:55;21.48;;;13.65;;
71148;SDS011;59072;42.144;25.200;2022-12-29T11:01:32;22.50;;;15.05;;
71148;SDS011;59072;42.144;25.200;2022-12-29T11:04:17;20.77;;;13.60;;
71148;SDS011;59072;42.144;25.200;2022-12-29T11:07:03;23.77;;;14.15;;
71148;SDS011;59072;42.144;25.200;2022-12-29T11:09:32;23.30;;;14.55;;
71148;SDS011;59072;42.144;25.200;2022-12-29T11:12:00;20.60;;;13.88;;
71148;SDS011;59072;42.144;25.200;2022-12-29T11:14:27;19.95;;;13.25;;
71148;SDS011;59072;42.144;25.200;2022-12-29T11:17:01;21.15;;;13.57;;
71148;SDS011;59072;42.144;25.200;2022-12-29T11:19:29;21.13;;;14.05;;
71148;SDS011;59072;42.144;25.200;2022-12-29T11:24:37;21.58;;;13.48;;
71148;SDS011;59072;42.144;25.200;2022-12-29T11:27:14;22.05;;;13.93;;
71148;SDS011;59072;42.144;25.200;2022-12-29T11:29:42;23.35;;;14.10;;
71148;SDS011;59072;42.144;25.200;2022-12-29T11:32:13;21.42;;;14.38;;
71148;SDS011;59072;42.144;25.200;2022-12-29T11:34:49;21.52;;;14.45;;
71148;SDS011;59072;42.144;25.200;2022-12-29T11:37:16;20.92;;;13.88;;
71148;SDS011;59072;42.144;25.200;2022-12-29T11:45:17;22.40;;;14.40;;
71148;SDS011;59072;42.144;25.200;2022-12-29T11:48:28;21.77;;;14.63;;
71148;SDS011;59072;42.144;25.200;2022-12-29T11:50:42;20.35;;;14.32;;
71148;SDS011;59072;42.144;25.200;2022-12-29T11:53:15;19.50;;;14.15;;
71148;SDS011;59072;42.144;25.200;2022-12-29T11:55:53;21.13;;;15.23;;
71148;SDS011;59072;42.144;25.200;2022-12-29T11:58:21;21.95;;;13.70;;
71148;SDS011;59072;42.144;25.200;2022-12-29T12:00:54;21.30;;;13.82;;
71148;SDS011;59072;42.144;25.200;2022-12-29T12:03:22;22.38;;;14.63;;
71148;SDS011;59072;42.144;25.200;2022-12-29T12:05:56;20.55;;;15.45;;
71148;SDS011;59072;42.144;25.200;2022-12-29T12:11:29;18.00;;;13.00;;
71148;SDS011;59072;42.144;25.200;2022-12-29T12:16:50;21.50;;;15.13;;
71148;SDS011;59072;42.144;25.200;2022-12-29T12:19:24;19.60;;;13.77;;
71148;SDS011;59072;42.144;25.200;2022-12-29T12:22:11;20.58;;;14.13;;
71148;SDS011;59072;42.144;25.200;2022-12-29T12:24:52;21.92;;;14.50;;
71148;SDS011;59072;42.144;25.200;2022-12-29T12:27:24;23.65;;;15.18;;
71148;SDS011;59072;42.144;25.200;2022-12-29T12:47:17;24.50;;;16.10;;
71148;SDS011;59072;42.144;25.200;2022-12-29T12:50:22;23.40;;;14.95;;
71148;SDS011;59072;42.144;25.200;2022-12-29T12:53:15;24.40;;;17.13;;
71148;SDS011;59072;42.144;25.200;2022-12-29T12:58:57;22.90;;;15.77;;
71148;SDS011;59072;42.144;25.200;2022-12-29T13:11:49;22.35;;;17.25;;
71148;SDS011;59072;42.144;25.200;2022-12-29T13:30:21;19.73;;;14.13;;
71148;SDS011;59072;42.144;25.200;2022-12-29T13:32:56;20.58;;;15.80;;
71148;SDS011;59072;42.144;25.200;2022-12-29T13:38:18;22.70;;;15.48;;
71148;SDS011;59072;42.144;25.200;2022-12-29T13:40:50;20.52;;;14.85;;
71148;SDS011;59072;42.144;25.200;2022-12-29T13:43:20;19.85;;;14.50;;
71148;SDS011;59072;42.144;25.200;2022-12-29T13:48:21;19.98;;;14.57;;
71148;SDS011;59072;42.144;25.200;2022-12-29T13:50:53;23.02;;;17.52;;
71148;SDS011;59072;42.144;25.200;2022-12-29T13:57:16;19.98;;;15.57;;
71148;SDS011;59072;42.144;25.200;2022-12-29T14:02:04;22.52;;;16.60;;
71148;SDS011;59072;42.144;25.200;2022-12-29T14:05:01;32.22;;;16.90;;
71148;SDS011;59072;42.144;25.200;2022-12-29T14:07:29;23.88;;;17.25;;
71148;SDS011;59072;42.144;25.200;2022-12-29T14:10:02;23.00;;;17.02;;
71148;SDS011;59072;42.144;25.200;2022-12-29T14:12:32;28.33;;;19.90;;
71148;SDS011;59072;42.144;25.200;2022-12-29T14:15:13;36.45;;;22.73;;
71148;SDS011;59072;42.144;25.200;2022-12-29T14:17:45;45.80;;;23.67;;
71148;SDS011;59072;42.144;25.200;2022-12-29T14:20:50;20.75;;;14.10;;
71148;SDS011;59072;42.144;25.200;2022-12-29T14:23:37;20.67;;;13.48;;
71148;SDS011;59072;42.144;25.200;2022-12-29T14:36:41;21.80;;;14.02;;
71148;SDS011;59072;42.144;25.200;2022-12-29T14:39:39;23.48;;;14.20;;
71148;SDS011;59072;42.144;25.200;2022-12-29T14:47:36;25.95;;;15.73;;
71148;SDS011;59072;42.144;25.200;2022-12-29T14:52:30;38.88;;;21.90;;
71148;SDS011;59072;42.144;25.200;2022-12-29T14:55:28;34.92;;;22.20;;
71148;SDS011;59072;42.144;25.200;2022-12-29T15:00:32;73.57;;;50.08;;
71148;SDS011;59072;42.144;25.200;2022-12-29T15:08:17;71.95;;;50.28;;
71148;SDS011;59072;42.144;25.200;2022-12-29T15:10:47;77.03;;;52.45;;
71148;SDS011;59072;42.144;25.200;2022-12-29T15:13:21;81.85;;;52.75;;
71148;SDS011;59072;42.144;25.200;2022-12-29T15:15:50;86.72;;;53.97;;
71148;SDS011;59072;42.144;25.200;2022-12-29T15:18:28;75.63;;;44.70;;
71148;SDS011;59072;42.144;25.200;2022-12-29T15:20:56;60.13;;;39.22;;
71148;SDS011;59072;42.144;25.200;2022-12-29T15:23:27;77.88;;;47.03;;
71148;SDS011;59072;42.144;25.200;2022-12-29T15:25:58;73.95;;;41.95;;
71148;SDS011;59072;42.144;25.200;2022-12-29T15:28:36;98.28;;;49.30;;
71148;SDS011;59072;42.144;25.200;2022-12-29T15:31:10;103.90;;;51.35;;
71148;SDS011;59072;42.144;25.200;2022-12-29T15:33:49;132.40;;;63.28;;
71148;SDS011;59072;42.144;25.200;2022-12-29T15:36:27;127.40;;;63.85;;
71148;SDS011;59072;42.144;25.200;2022-12-29T15:38:53;258.02;;;115.03;;
71148;SDS011;59072;42.144;25.200;2022-12-29T15:41:34;132.77;;;65.40;;
71148;SDS011;59072;42.144;25.200;2022-12-29T15:44:36;106.45;;;53.13;;
71148;SDS011;59072;42.144;25.200;2022-12-29T15:47:05;110.45;;;54.42;;
71148;SDS011;59072;42.144;25.200;2022-12-29T15:49:37;107.18;;;52.70;;
71148;SDS011;59072;42.144;25.200;2022-12-29T15:52:07;101.05;;;50.30;;
71148;SDS011;59072;42.144;25.200;2022-12-29T15:54:33;101.70;;;52.75;;
71148;SDS011;59072;42.144;25.200;2022-12-29T15:56:59;114.30;;;53.58;;
71148;SDS011;59072;42.144;25.200;2022-12-29T15:59:32;85.22;;;47.97;;
71148;SDS011;59072;42.144;25.200;2022-12-29T16:01:59;92.72;;;47.53;;
71148;SDS011;59072;42.144;25.200;2022-12-29T16:04:27;78.43;;;42.60;;
71148;SDS011;59072;42.144;25.200;2022-12-29T16:07:01;62.25;;;38.50;;
71148;SDS011;59072;42.144;25.200;2022-12-29T16:09:42;57.45;;;41.22;;
71148;SDS011;59072;42.144;25.200;2022-12-29T16:12:16;51.92;;;34.42;;
71148;SDS011;59072;42.144;25.200;2022-12-29T16:14:45;43.63;;;28.05;;
71148;SDS011;59072;42.144;25.200;2022-12-29T16:17:24;51.88;;;30.20;;
71148;SDS011;59072;42.144;25.200;2022-12-29T16:19:56;48.38;;;29.65;;
71148;SDS011;59072;42.144;25.200;2022-12-29T16:22:27;55.47;;;33.40;;
71148;SDS011;59072;42.144;25.200;2022-12-29T16:25:00;64.10;;;42.63;;
71148;SDS011;59072;42.144;25.200;2022-12-29T16:27:35;64.43;;;45.35;;
71148;SDS011;59072;42.144;25.200;2022-12-29T16:30:04;60.03;;;41.78;;
71148;SDS011;59072;42.144;25.200;2022-12-29T16:32:49;176.82;;;108.10;;
71148;SDS011;59072;42.144;25.200;2022-12-29T16:37:48;65.30;;;39.00;;
71148;SDS011;59072;42.144;25.200;2022-12-29T16:40:32;66.90;;;42.28;;
71148;SDS011;59072;42.144;25.200;2022-12-29T16:43:01;56.97;;;34.30;;
71148;SDS011;59072;42.144;25.200;2022-12-29T16:50:38;87.57;;;44.28;;
71148;SDS011;59072;42.144;25.200;2022-12-29T16:53:06;90.40;;;44.25;;
71148;SDS011;59072;42.144;25.200;2022-12-29T16:55:50;72.25;;;38.33;;
71148;SDS011;59072;42.144;25.200;2022-12-29T16:58:25;64.03;;;34.80;;
71148;SDS011;59072;42.144;25.200;2022-12-29T17:00:55;56.53;;;34.40;;
71148;SDS011;59072;42.144;25.200;2022-12-29T17:03:23;59.05;;;34.15;;
71148;SDS011;59072;42.144;25.200;2022-12-29T17:05:56;60.30;;;34.00;;
71148;SDS011;59072;42.144;25.200;2022-12-29T17:08:21;50.92;;;30.60;;
71148;SDS011;59072;42.144;25.200;2022-12-29T17:13:38;43.58;;;25.50;;
71148;SDS011;59072;42.144;25.200;2022-12-29T17:16:04;57.20;;;30.27;;
71148;SDS011;59072;42.144;25.200;2022-12-29T17:20:58;46.55;;;26.10;;
71148;SDS011;59072;42.144;25.200;2022-12-29T17:23:23;45.80;;;26.92;;
71148;SDS011;59072;42.144;25.200;2022-12-29T17:25:49;41.67;;;24.00;;
71148;SDS011;59072;42.144;25.200;2022-12-29T17:28:24;76.55;;;39.25;;
71148;SDS011;59072;42.144;25.200;2022-12-29T17:30:52;112.38;;;49.63;;
71148;SDS011;59072;42.144;25.200;2022-12-29T17:33:21;123.88;;;54.08;;